Time;durP1;ratioP1;P1;durP2;ratioP2;P2;SDS_P1;SDS_P2;PMS_P1;PMS_P2;Temp;Humidity;BMP_temperature;BMP_pressure;BME280_temperature;BME280_humidity;BME280_pressure;Samples;Min_cycle;Max_cycle;Signal;HPM_P1;HPM_P2
2023/01/23 00:00:31;;;;;;;18.40;7.30;;;2.30;99.90;;;;;;5071768;28;20047;-75
2023/01/23 00:02:57;;;;;;;13.83;7.50;;;2.20;99.90;;;;;;5070022;28;20044;-75
2023/01/23 00:05:22;;;;;;;15.80;8.20;;;2.30;99.90;;;;;;5071730;28;20190;-77
2023/01/23 00:07:48;;;;;;;15.70;7.13;;;2.20;99.90;;;;;;5070162;28;20048;-76
2023/01/23 00:10:14;;;;;;;17.17;8.30;;;2.50;99.90;;;;;;5071339;28;20452;-74
2023/01/23 00:12:43;;;;;;;16.50;7.80;;;2.30;99.90;;;;;;5070884;28;20037;-75
2023/01/23 00:15:11;;;;;;;13.80;7.53;;;2.30;99.90;;;;;;5071359;28;20055;-75
2023/01/23 00:17:37;;;;;;;18.90;8.53;;;2.30;99.90;;;;;;5070831;28;20506;-75
2023/01/23 00:20:03;;;;;;;17.00;8.20;;;2.30;99.90;;;;;;5070864;28;20044;-75
2023/01/23 00:22:29;;;;;;;17.80;8.50;;;2.30;99.90;;;;;;5069683;28;20421;-78
2023/01/23 00:24:55;;;;;;;16.37;8.23;;;2.20;99.90;;;;;;5061890;28;20521;-75
2023/01/23 00:27:20;;;;;;;15.10;7.60;;;2.30;99.90;;;;;;5069117;28;20453;-75
2023/01/23 00:29:46;;;;;;;14.50;7.83;;;2.20;99.90;;;;;;5070996;28;20059;-75
2023/01/23 00:32:12;;;;;;;16.77;8.63;;;2.30;99.90;;;;;;5070685;28;20495;-75
2023/01/23 00:34:38;;;;;;;15.33;7.87;;;2.30;99.90;;;;;;5069372;28;20063;-75
2023/01/23 00:37:04;;;;;;;17.00;8.13;;;2.40;99.90;;;;;;5069845;28;20132;-76
2023/01/23 00:39:29;;;;;;;17.20;7.93;;;2.40;99.90;;;;;;5071359;28;20198;-75
2023/01/23 00:41:55;;;;;;;15.67;7.77;;;2.20;99.90;;;;;;5070569;28;20061;-74
2023/01/23 00:44:21;;;;;;;13.80;7.60;;;2.20;99.90;;;;;;5070634;28;20055;-75
2023/01/23 00:46:47;;;;;;;16.67;8.13;;;2.20;99.90;;;;;;5069933;28;20430;-75
2023/01/23 00:49:13;;;;;;;13.87;7.80;;;2.20;99.90;;;;;;5070523;28;20094;-75
2023/01/23 00:51:39;;;;;;;14.17;7.83;;;2.20;99.90;;;;;;5070172;28;20541;-75
2023/01/23 00:54:05;;;;;;;17.63;8.00;;;2.40;99.90;;;;;;5069748;28;20048;-75
2023/01/23 00:56:31;;;;;;;14.67;8.17;;;2.30;99.90;;;;;;5069115;28;20086;-75
2023/01/23 00:58:56;;;;;;;15.33;8.13;;;2.20;99.90;;;;;;5069724;28;20050;-78
2023/01/23 01:01:22;;;;;;;15.17;7.77;;;2.30;99.90;;;;;;5068848;28;20074;-75
2023/01/23 01:03:48;;;;;;;15.27;7.67;;;2.20;99.90;;;;;;5068100;28;20149;-76
2023/01/23 01:06:14;;;;;;;14.67;7.60;;;2.20;99.90;;;;;;5068975;28;20088;-76
2023/01/23 01:08:40;;;;;;;15.07;7.27;;;2.20;99.90;;;;;;5069635;28;20518;-75
2023/01/23 01:11:06;;;;;;;17.60;8.13;;;2.20;99.90;;;;;;5067438;28;20061;-75
2023/01/23 01:13:32;;;;;;;18.47;7.87;;;2.20;99.90;;;;;;5069519;28;20494;-76
2023/01/23 01:16:00;;;;;;;16.90;7.70;;;2.20;99.90;;;;;;5069596;28;20044;-75
2023/01/23 01:18:27;;;;;;;13.47;7.30;;;2.20;99.90;;;;;;5070016;28;20079;-76
2023/01/23 01:20:53;;;;;;;13.53;7.20;;;2.20;99.90;;;;;;5068806;28;20056;-75
2023/01/23 01:23:19;;;;;;;20.33;8.53;;;2.30;99.90;;;;;;5069802;28;20084;-74
2023/01/23 01:25:45;;;;;;;17.40;7.57;;;2.20;99.90;;;;;;5057492;28;20101;-76
2023/01/23 01:28:11;;;;;;;15.23;7.40;;;2.20;99.90;;;;;;5049620;28;20049;-75
2023/01/23 01:30:38;;;;;;;13.30;6.60;;;2.20;99.90;;;;;;5050201;28;20272;-75
2023/01/23 01:33:04;;;;;;;15.37;7.40;;;2.20;99.90;;;;;;5049496;28;20080;-75
2023/01/23 01:35:30;;;;;;;16.30;7.93;;;2.20;99.90;;;;;;5065903;28;20048;-75
2023/01/23 01:37:56;;;;;;;11.20;6.87;;;2.20;99.90;;;;;;5069472;28;20051;-76
2023/01/23 01:40:28;;;;;;;16.03;8.13;;;2.20;99.90;;;;;;5069925;28;20256;-75
2023/01/23 01:43:06;;;;;;;;;;;2.30;99.90;;;;;;5052111;28;20044;-75
2023/01/23 01:46:00;;;;;;;20.43;6.93;;;2.10;99.90;;;;;;5069603;28;19990;-75
2023/01/23 01:48:32;;;;;;;15.57;7.23;;;2.10;99.90;;;;;;5068837;28;20498;-75
2023/01/23 01:51:00;;;;;;;12.57;7.28;;;2.10;99.90;;;;;;5069729;28;20041;-76
2023/01/23 01:53:29;;;;;;;13.10;7.33;;;2.20;99.90;;;;;;5069317;28;20088;-76
2023/01/23 01:55:56;;;;;;;17.40;7.73;;;2.20;99.90;;;;;;5069473;28;20074;-75
2023/01/23 01:58:23;;;;;;;18.03;7.90;;;2.20;99.90;;;;;;5069144;28;20044;-76
2023/01/23 02:00:48;;;;;;;18.83;7.57;;;2.10;99.90;;;;;;5068860;28;20067;-75
2023/01/23 02:03:15;;;;;;;16.10;7.47;;;2.10;99.90;;;;;;5068750;28;20502;-75
2023/01/23 02:05:47;;;;;;;15.50;7.00;;;2.30;99.90;;;;;;5068705;28;20048;-76
2023/01/23 02:08:34;;;;;;;15.73;7.20;;;2.10;99.90;;;;;;5069302;28;20041;-75
2023/01/23 02:11:02;;;;;;;15.87;8.10;;;2.10;99.90;;;;;;5064286;28;20053;-75
2023/01/23 02:13:34;;;;;;;12.47;7.37;;;2.10;99.90;;;;;;5068392;28;20469;-75
2023/01/23 02:16:11;;;;;;;14.30;7.83;;;2.10;99.90;;;;;;5069535;28;20048;-75
2023/01/23 02:18:43;;;;;;;16.70;7.90;;;2.10;99.90;;;;;;5068561;28;20044;-76
2023/01/23 02:21:09;;;;;;;;;;;2.10;99.90;;;;;;5067966;28;20387;-75
2023/01/23 02:23:47;;;;;;;12.97;7.77;;;2.20;99.90;;;;;;5068273;28;19921;-75
2023/01/23 02:26:20;;;;;;;19.27;7.33;;;2.10;99.90;;;;;;5053434;28;20053;-74
2023/01/23 02:28:48;;;;;;;11.73;7.57;;;2.10;99.90;;;;;;5048244;28;20064;-75
2023/01/23 02:31:15;;;;;;;11.30;7.20;;;2.40;99.90;;;;;;5048387;28;20368;-75
2023/01/23 02:33:48;;;;;;;10.60;7.20;;;2.10;99.90;;;;;;5049997;28;20045;-75
2023/01/23 02:36:16;;;;;;;14.77;7.30;;;2.10;99.90;;;;;;5068691;28;20060;-75
2023/01/23 02:38:54;;;;;;;12.47;7.80;;;2.10;99.90;;;;;;5069656;28;20079;-75
2023/01/23 02:41:28;;;;;;;14.63;7.27;;;2.10;99.90;;;;;;5068027;28;20076;-75
2023/01/23 02:43:55;;;;;;;13.17;7.40;;;2.00;99.90;;;;;;5067714;28;20577;-75
2023/01/23 02:46:23;;;;;;;19.07;7.47;;;2.10;99.90;;;;;;5069228;28;20044;-78
2023/01/23 02:48:48;;;;;;;9.40;7.50;;;2.10;99.90;;;;;;5069219;28;20053;-75
2023/01/23 02:51:16;;;;;;;16.93;7.90;;;2.00;99.90;;;;;;5068970;28;20048;-74
2023/01/23 02:53:43;;;;;;;14.83;7.87;;;2.10;99.90;;;;;;5067334;28;20044;-75
2023/01/23 02:56:08;;;;;;;14.10;7.83;;;2.10;99.90;;;;;;5067850;28;20052;-77
2023/01/23 03:01:19;;;;;;;13.37;7.43;;;2.10;99.90;;;;;;5072555;28;20156;-75
2023/01/23 03:03:45;;;;;;;13.67;7.20;;;2.10;99.90;;;;;;5071876;28;20131;-75
2023/01/23 03:06:11;;;;;;;15.43;7.77;;;2.10;99.90;;;;;;5071600;28;20135;-75
2023/01/23 03:08:46;;;;;;;18.43;7.43;;;2.10;99.90;;;;;;5071286;28;20066;-75
2023/01/23 03:11:12;;;;;;;10.90;7.40;;;2.00;99.90;;;;;;5071923;28;20494;-75
2023/01/23 03:13:38;;;;;;;10.67;6.80;;;2.10;99.90;;;;;;5072102;28;20127;-76
2023/01/23 03:16:04;;;;;;;13.73;6.70;;;2.00;99.90;;;;;;5072404;28;20143;-76
2023/01/23 03:18:32;;;;;;;12.03;7.10;;;2.10;99.90;;;;;;5069936;28;20047;-75
2023/01/23 03:21:07;;;;;;;13.37;7.67;;;2.20;99.90;;;;;;5072714;28;20186;-75
2023/01/23 03:23:35;;;;;;;13.17;7.57;;;2.00;99.90;;;;;;5068238;28;20132;-75
2023/01/23 03:26:01;;;;;;;13.53;7.20;;;2.10;99.90;;;;;;5065829;28;20526;-75
2023/01/23 03:31:13;;;;;;;15.67;7.40;;;2.10;99.90;;;;;;5071846;28;20078;-75
2023/01/23 03:33:42;;;;;;;14.60;8.03;;;2.00;99.90;;;;;;5071932;28;20045;-75
2023/01/23 03:36:09;;;;;;;15.97;7.10;;;2.00;99.90;;;;;;5071503;28;20109;-75
2023/01/23 03:38:35;;;;;;;11.27;7.50;;;2.00;99.90;;;;;;5072500;28;20044;-74
2023/01/23 03:43:45;;;;;;;17.73;7.47;;;2.00;99.90;;;;;;5071730;28;20052;-76
2023/01/23 03:46:10;;;;;;;11.30;7.80;;;2.00;99.90;;;;;;5071882;28;20044;-75
2023/01/23 03:48:36;;;;;;;15.57;7.33;;;2.00;99.90;;;;;;5071779;28;20055;-76
2023/01/23 03:51:02;;;;;;;18.10;7.53;;;2.00;99.90;;;;;;5071608;28;20118;-75
2023/01/23 03:53:27;;;;;;;13.53;7.37;;;2.10;99.90;;;;;;5070617;28;20079;-75
2023/01/23 03:55:53;;;;;;;12.97;7.33;;;2.00;99.90;;;;;;5070778;28;20394;-76
2023/01/23 03:58:19;;;;;;;14.57;7.70;;;2.10;99.90;;;;;;5069414;28;20044;-75
2023/01/23 04:00:44;;;;;;;14.33;7.87;;;2.10;99.90;;;;;;5071602;28;20139;-75
2023/01/23 04:03:10;;;;;;;14.27;6.87;;;2.10;99.90;;;;;;5069595;28;20041;-75
2023/01/23 04:05:36;;;;;;;18.00;7.70;;;2.00;99.90;;;;;;5070985;28;20399;-76
2023/01/23 04:08:01;;;;;;;13.33;7.43;;;2.00;99.90;;;;;;5070575;28;20117;-76
2023/01/23 04:10:28;;;;;;;12.63;6.80;;;2.00;99.90;;;;;;5070752;28;20486;-75
2023/01/23 04:12:54;;;;;;;16.03;7.30;;;2.00;99.90;;;;;;5070227;28;20040;-75
2023/01/23 04:15:19;;;;;;;18.07;7.80;;;2.20;99.90;;;;;;5071873;28;20063;-75
2023/01/23 04:17:45;;;;;;;22.27;7.73;;;2.00;99.90;;;;;;5069047;28;20040;-75
2023/01/23 04:20:12;;;;;;;19.50;7.70;;;2.00;99.90;;;;;;5069670;28;20040;-75
2023/01/23 04:22:37;;;;;;;14.50;7.33;;;2.00;99.90;;;;;;5069711;28;20040;-75
2023/01/23 04:25:04;;;;;;;15.63;7.63;;;2.00;99.90;;;;;;5061658;28;20544;-75
2023/01/23 04:27:30;;;;;;;18.77;8.03;;;2.00;99.90;;;;;;5070744;28;20053;-75
2023/01/23 04:29:57;;;;;;;14.20;8.50;;;2.30;99.90;;;;;;5070693;28;20082;-75
2023/01/23 04:32:25;;;;;;;11.13;7.60;;;2.20;99.90;;;;;;5070130;28;20048;-75
2023/01/23 04:34:51;;;;;;;19.60;8.93;;;2.00;99.90;;;;;;5070499;28;20074;-76
2023/01/23 04:37:17;;;;;;;15.77;8.90;;;2.10;99.90;;;;;;5070737;28;20048;-75
2023/01/23 04:39:42;;;;;;;18.00;7.97;;;2.00;99.90;;;;;;5070723;28;20040;-76
2023/01/23 04:42:08;;;;;;;16.73;8.70;;;2.00;99.90;;;;;;5070237;28;20048;-75
2023/01/23 04:44:34;;;;;;;15.57;8.63;;;2.00;99.90;;;;;;5071053;28;20033;-76
2023/01/23 04:47:00;;;;;;;17.70;9.13;;;2.00;99.90;;;;;;5070137;28;20509;-74
2023/01/23 04:49:26;;;;;;;16.90;8.90;;;2.00;99.90;;;;;;5070559;28;20059;-75
2023/01/23 04:51:52;;;;;;;16.73;8.70;;;2.10;99.90;;;;;;5052440;28;20291;-75
2023/01/23 04:54:19;;;;;;;15.23;8.93;;;2.00;99.90;;;;;;5070377;28;20057;-74
2023/01/23 04:56:45;;;;;;;13.77;8.60;;;2.00;99.90;;;;;;5070154;28;20053;-76
2023/01/23 04:59:11;;;;;;;14.57;8.90;;;2.40;99.90;;;;;;5069673;28;20055;-76
2023/01/23 05:01:37;;;;;;;18.20;9.17;;;2.00;99.90;;;;;;5069741;28;20181;-75
2023/01/23 05:04:03;;;;;;;19.83;9.57;;;2.10;99.90;;;;;;5070556;28;20528;-75
2023/01/23 05:06:29;;;;;;;14.73;9.27;;;2.00;99.90;;;;;;5069902;28;20056;-75
2023/01/23 05:08:55;;;;;;;14.97;9.33;;;2.00;99.90;;;;;;5066422;28;20603;-75
2023/01/23 05:11:21;;;;;;;16.67;9.63;;;2.00;99.90;;;;;;5064863;28;20048;-75
2023/01/23 05:13:46;;;;;;;20.03;10.40;;;2.00;99.90;;;;;;5066482;28;20067;-77
2023/01/23 05:16:12;;;;;;;19.80;10.77;;;2.00;99.90;;;;;;5066744;28;20076;-75
2023/01/23 05:18:38;;;;;;;17.23;10.10;;;2.10;99.90;;;;;;5067197;28;20044;-75
2023/01/23 05:21:04;;;;;;;17.67;9.80;;;2.00;99.90;;;;;;5069325;28;20048;-76
2023/01/23 05:23:30;;;;;;;18.23;10.53;;;2.00;99.90;;;;;;5065460;28;20082;-76
2023/01/23 05:25:55;;;;;;;15.90;10.70;;;2.00;99.90;;;;;;5062973;28;20045;-75
2023/01/23 05:28:21;;;;;;;22.50;11.30;;;2.00;99.90;;;;;;5068296;28;20045;-75
2023/01/23 05:30:47;;;;;;;16.80;9.90;;;2.00;99.90;;;;;;5068906;28;20048;-76
2023/01/23 05:33:12;;;;;;;20.10;10.27;;;2.10;99.90;;;;;;5069495;28;20052;-75
2023/01/23 05:35:39;;;;;;;18.43;10.90;;;2.00;99.90;;;;;;5069600;28;20467;-75
2023/01/23 05:38:05;;;;;;;18.07;10.40;;;2.00;99.90;;;;;;5067875;28;20122;-75
2023/01/23 05:40:31;;;;;;;19.03;10.50;;;2.10;99.90;;;;;;5068626;28;20091;-75
2023/01/23 05:42:56;;;;;;;16.50;10.60;;;2.00;99.90;;;;;;5067392;28;20071;-75
2023/01/23 05:45:22;;;;;;;16.80;11.20;;;2.00;99.90;;;;;;5068833;28;20090;-75
2023/01/23 05:47:48;;;;;;;18.87;11.03;;;2.00;99.90;;;;;;5068130;28;20044;-75
2023/01/23 05:50:16;;;;;;;19.63;10.93;;;2.00;99.90;;;;;;5069298;28;20344;-77
2023/01/23 05:52:41;;;;;;;16.60;10.53;;;2.00;99.90;;;;;;5067203;28;20098;-75
2023/01/23 05:55:07;;;;;;;17.90;10.70;;;2.00;99.90;;;;;;5068791;28;20049;-75
2023/01/23 05:57:33;;;;;;;18.27;11.30;;;2.00;99.90;;;;;;5064822;28;20059;-74
2023/01/23 05:59:59;;;;;;;19.23;11.17;;;2.10;99.90;;;;;;5066888;28;20403;-75
2023/01/23 06:02:25;;;;;;;20.20;11.13;;;2.00;99.90;;;;;;5066338;28;20048;-75
2023/01/23 06:04:50;;;;;;;15.70;10.30;;;2.00;99.90;;;;;;5066681;28;20623;-76
2023/01/23 06:07:18;;;;;;;13.67;10.53;;;2.00;99.90;;;;;;5067970;28;20048;-75
2023/01/23 06:09:44;;;;;;;17.80;10.20;;;2.00;99.90;;;;;;5067951;28;20051;-75
2023/01/23 06:12:11;;;;;;;19.70;11.20;;;2.00;99.90;;;;;;5067336;28;20048;-76
2023/01/23 06:14:36;;;;;;;20.13;11.17;;;2.10;99.90;;;;;;5068344;28;20105;-76
2023/01/23 06:17:02;;;;;;;19.77;10.80;;;2.00;99.90;;;;;;5068403;28;20347;-75
2023/01/23 06:19:28;;;;;;;18.70;10.80;;;2.00;99.90;;;;;;5051544;28;20059;-75
2023/01/23 06:21:54;;;;;;;19.57;11.50;;;2.20;99.90;;;;;;5069376;28;20048;-75
2023/01/23 06:24:19;;;;;;;22.20;11.80;;;2.00;99.90;;;;;;5057707;28;20384;-75
2023/01/23 06:26:45;;;;;;;21.53;11.67;;;2.20;99.90;;;;;;5067763;28;20052;-75
2023/01/23 06:29:11;;;;;;;18.00;11.63;;;2.10;99.90;;;;;;5067509;28;20044;-76
2023/01/23 06:31:37;;;;;;;19.03;11.53;;;2.00;99.90;;;;;;5068776;28;20089;-76
2023/01/23 06:34:02;;;;;;;23.83;12.20;;;2.20;99.90;;;;;;5072025;28;20049;-75
2023/01/23 06:36:28;;;;;;;23.53;12.43;;;2.00;99.90;;;;;;5071597;28;20052;-75
2023/01/23 06:38:54;;;;;;;20.57;11.83;;;2.00;99.90;;;;;;5072872;28;20080;-74
2023/01/23 06:41:20;;;;;;;24.03;11.77;;;2.00;99.90;;;;;;5071562;28;20169;-76
2023/01/23 06:43:46;;;;;;;19.57;11.70;;;2.20;99.90;;;;;;5072527;28;20206;-74
2023/01/23 06:46:12;;;;;;;22.10;12.23;;;1.90;99.90;;;;;;5073011;28;20131;-75
2023/01/23 06:48:38;;;;;;;23.73;12.57;;;2.10;99.90;;;;;;5073062;28;20605;-75
2023/01/23 06:51:04;;;;;;;21.63;13.47;;;2.00;99.90;;;;;;5072117;28;20044;-76
2023/01/23 06:53:30;;;;;;;21.73;12.37;;;2.00;99.90;;;;;;5071422;28;20087;-76
2023/01/23 06:56:04;;;;;;;20.30;12.57;;;2.00;99.90;;;;;;5070770;28;20076;-74
2023/01/23 06:58:30;;;;;;;39.60;21.97;;;2.00;99.90;;;;;;5070819;28;20410;-75
2023/01/23 07:00:56;;;;;;;38.07;21.83;;;2.00;99.90;;;;;;5072132;28;20069;-74
2023/01/23 07:03:22;;;;;;;27.70;14.90;;;2.00;99.90;;;;;;5072548;28;20049;-76
2023/01/23 07:05:49;;;;;;;24.17;13.97;;;2.00;99.90;;;;;;5071841;28;20058;-74
2023/01/23 07:08:14;;;;;;;23.67;12.90;;;2.00;99.90;;;;;;5069747;28;20149;-75
2023/01/23 07:10:40;;;;;;;23.10;12.70;;;2.00;99.90;;;;;;5071252;28;20490;-75
2023/01/23 07:13:08;;;;;;;26.13;14.40;;;2.00;99.90;;;;;;5069758;28;20045;-75
2023/01/23 07:15:34;;;;;;;25.40;15.43;;;2.00;99.90;;;;;;5071636;28;20058;-75
2023/01/23 07:18:00;;;;;;;23.27;14.23;;;2.00;99.90;;;;;;5069738;28;20040;-75
2023/01/23 07:20:26;;;;;;;24.67;13.23;;;2.00;99.90;;;;;;5070878;28;20567;-75
2023/01/23 07:22:56;;;;;;;26.13;14.07;;;2.00;99.90;;;;;;5070424;28;20924;-75
2023/01/23 07:25:22;;;;;;;25.60;14.67;;;2.00;99.90;;;;;;5069706;28;20078;-75
2023/01/23 07:27:48;;;;;;;23.13;14.50;;;2.10;99.90;;;;;;5071390;28;20041;-75
2023/01/23 07:30:15;;;;;;;28.70;14.93;;;1.90;99.90;;;;;;5071818;28;20047;-75
2023/01/23 07:32:40;;;;;;;24.90;15.70;;;2.00;99.90;;;;;;5069800;28;20311;-78
2023/01/23 07:35:07;;;;;;;27.67;15.57;;;2.00;99.90;;;;;;5071261;28;20089;-75
2023/01/23 07:37:32;;;;;;;20.47;13.33;;;2.00;99.90;;;;;;5071555;28;20080;-76
2023/01/23 07:39:58;;;;;;;26.13;14.40;;;2.00;99.90;;;;;;5071209;28;20131;-75
2023/01/23 07:42:24;;;;;;;25.33;15.03;;;2.00;99.90;;;;;;5069502;28;20094;-75
2023/01/23 07:44:50;;;;;;;23.60;14.50;;;2.10;99.90;;;;;;5069794;28;20072;-75
2023/01/23 07:47:15;;;;;;;28.53;14.87;;;2.30;99.90;;;;;;5052604;28;20036;-74
2023/01/23 07:49:41;;;;;;;23.37;14.07;;;2.00;99.90;;;;;;5071470;28;20103;-75
2023/01/23 07:52:07;;;;;;;24.67;13.93;;;2.30;99.90;;;;;;5070757;28;20051;-75
2023/01/23 07:54:32;;;;;;;22.23;13.47;;;2.00;99.90;;;;;;5072005;28;20099;-74
2023/01/23 07:56:58;;;;;;;26.30;15.40;;;2.10;99.90;;;;;;5071172;28;20048;-76
2023/01/23 07:59:24;;;;;;;23.70;14.53;;;2.00;99.90;;;;;;5058109;28;20076;-76
2023/01/23 08:01:51;;;;;;;27.83;14.93;;;2.00;99.90;;;;;;5069969;28;20443;-74
2023/01/23 08:04:20;;;;;;;25.73;14.00;;;2.00;99.90;;;;;;5071466;28;20083;-76
2023/01/23 08:06:46;;;;;;;24.63;14.73;;;2.00;99.90;;;;;;5070832;28;20044;-75
2023/01/23 08:09:11;;;;;;;21.60;14.20;;;2.00;99.90;;;;;;5068430;28;20249;-76
2023/01/23 08:11:38;;;;;;;22.33;13.90;;;2.00;99.90;;;;;;5069883;28;20094;-76
2023/01/23 08:14:04;;;;;;;27.03;13.70;;;2.00;99.90;;;;;;5070293;28;20044;-74
2023/01/23 08:16:29;;;;;;;23.67;14.20;;;2.00;99.90;;;;;;5069499;28;20067;-75
2023/01/23 08:18:55;;;;;;;21.20;13.57;;;2.00;99.90;;;;;;5070281;28;20129;-75
2023/01/23 08:21:21;;;;;;;26.73;13.97;;;2.00;99.90;;;;;;5055038;28;20127;-74
2023/01/23 08:23:47;;;;;;;19.07;13.77;;;2.10;99.90;;;;;;5024576;28;20478;-74
2023/01/23 08:26:15;;;;;;;21.20;13.27;;;2.20;99.90;;;;;;5046880;28;20060;-78
2023/01/23 08:28:42;;;;;;;22.33;13.60;;;2.10;99.90;;;;;;5044949;28;20049;-76
2023/01/23 08:31:10;;;;;;;19.07;12.90;;;2.10;99.90;;;;;;5024285;28;20075;-75
2023/01/23 08:33:37;;;;;;;23.87;12.53;;;2.10;99.90;;;;;;5019669;28;20143;-77
2023/01/23 08:36:05;;;;;;;21.40;13.50;;;2.10;99.90;;;;;;5047665;28;20063;-77
2023/01/23 08:38:31;;;;;;;20.43;12.50;;;2.10;99.90;;;;;;5040026;28;20045;-77
2023/01/23 08:41:01;;;;;;;24.20;13.03;;;2.10;99.90;;;;;;5031954;28;20049;-75
2023/01/23 08:43:27;;;;;;;21.00;14.30;;;2.30;99.90;;;;;;5044397;28;20194;-77
2023/01/23 08:45:55;;;;;;;24.20;12.23;;;2.20;99.90;;;;;;5034861;28;20055;-76
2023/01/23 08:48:22;;;;;;;20.23;12.30;;;2.20;99.90;;;;;;5040495;28;20078;-77
2023/01/23 08:50:48;;;;;;;19.83;12.60;;;2.20;99.90;;;;;;5038771;28;20493;-78
2023/01/23 08:53:15;;;;;;;15.10;11.03;;;2.20;99.90;;;;;;5020475;28;20052;-76
2023/01/23 08:55:41;;;;;;;13.73;10.63;;;2.20;99.90;;;;;;5030764;28;20048;-76
2023/01/23 08:58:08;;;;;;;20.90;11.43;;;2.30;99.90;;;;;;5041595;28;20565;-76
2023/01/23 09:00:34;;;;;;;18.27;10.80;;;2.30;99.90;;;;;;5037655;28;20056;-78
2023/01/23 09:03:02;;;;;;;16.07;10.80;;;2.30;99.90;;;;;;5034238;28;20063;-78
2023/01/23 09:05:28;;;;;;;15.93;9.60;;;2.40;99.90;;;;;;5031356;28;20053;-77
2023/01/23 09:07:55;;;;;;;13.77;10.17;;;2.50;99.90;;;;;;5028328;28;20402;-75
2023/01/23 09:10:22;;;;;;;12.97;9.87;;;2.40;99.90;;;;;;5038147;28;20068;-75
2023/01/23 09:12:50;;;;;;;14.63;10.63;;;2.40;99.90;;;;;;5035868;28;20132;-75
2023/01/23 09:15:16;;;;;;;14.00;9.80;;;2.50;99.90;;;;;;5046542;28;20060;-76
2023/01/23 09:17:42;;;;;;;11.67;9.20;;;2.40;99.90;;;;;;5037266;28;20049;-76
2023/01/23 09:20:08;;;;;;;12.33;8.97;;;2.50;99.90;;;;;;5039527;28;20044;-76
2023/01/23 09:22:34;;;;;;;11.83;8.47;;;2.50;99.90;;;;;;5035747;28;20403;-77
2023/01/23 09:25:00;;;;;;;9.83;8.43;;;2.50;99.90;;;;;;5046284;28;20056;-77
2023/01/23 09:27:25;;;;;;;10.73;8.87;;;2.40;99.90;;;;;;5037477;28;20487;-75
2023/01/23 09:29:51;;;;;;;11.10;7.80;;;2.50;99.90;;;;;;5034945;28;20570;-78
2023/01/23 09:32:17;;;;;;;10.80;8.77;;;2.60;99.90;;;;;;5035440;28;20056;-78
2023/01/23 09:34:42;;;;;;;9.77;8.40;;;2.60;99.90;;;;;;5022367;28;20074;-78
2023/01/23 09:37:08;;;;;;;11.63;8.30;;;2.50;99.90;;;;;;5029211;28;20095;-76
2023/01/23 09:39:34;;;;;;;9.07;7.77;;;2.50;99.90;;;;;;5032773;28;20528;-77
2023/01/23 09:42:08;;;;;;;10.80;8.37;;;2.50;99.90;;;;;;5029941;28;20128;-79
2023/01/23 09:44:41;;;;;;;10.47;7.63;;;2.60;99.90;;;;;;5040201;28;20052;-76
2023/01/23 09:47:20;;;;;;;10.50;7.43;;;2.70;99.90;;;;;;5038678;28;20495;-76
2023/01/23 09:50:03;;;;;;;9.83;7.93;;;2.70;99.90;;;;;;5037032;28;20053;-76
2023/01/23 09:52:35;;;;;;;9.67;7.10;;;2.70;99.90;;;;;;5031341;28;20134;-79
2023/01/23 09:55:17;;;;;;;7.03;6.33;;;2.70;99.90;;;;;;5032337;28;20053;-76
2023/01/23 09:57:54;;;;;;;;;;;2.70;99.90;;;;;;5034419;28;20534;-76
2023/01/23 10:00:24;;;;;;;7.37;5.60;;;2.70;99.90;;;;;;5037988;28;19928;-79
2023/01/23 10:02:52;;;;;;;7.93;6.10;;;2.70;99.90;;;;;;5038551;28;20406;-76
2023/01/23 10:05:24;;;;;;;7.60;5.83;;;2.70;99.90;;;;;;5037601;28;20086;-75
2023/01/23 10:08:02;;;;;;;6.83;6.13;;;2.90;99.90;;;;;;5034791;28;20134;-79
2023/01/23 10:10:47;;;;;;;6.73;5.03;;;2.80;99.90;;;;;;5043008;28;20143;-78
2023/01/23 10:13:16;;;;;;;6.10;4.97;;;2.80;99.90;;;;;;5043650;28;20071;-76
2023/01/23 10:16:23;;;;;;;6.80;5.33;;;2.80;99.90;;;;;;5028823;28;20985;-76
2023/01/23 10:19:16;;;;;;;6.37;5.77;;;2.80;99.90;;;;;;4982902;28;20597;-78
2023/01/23 10:22:07;;;;;;;8.13;6.33;;;2.90;99.90;;;;;;5043767;28;20055;-75
2023/01/23 10:24:55;;;;;;;5.18;4.57;;;2.90;99.90;;;;;;5037456;28;20060;-76
2023/01/23 10:27:43;;;;;;;6.53;5.83;;;2.90;99.90;;;;;;5041415;28;20418;-75
2023/01/23 10:30:29;;;;;;;6.73;6.03;;;2.90;99.90;;;;;;5040010;28;20060;-76
2023/01/23 10:32:54;;;;;;;7.30;6.27;;;3.00;99.90;;;;;;5044539;28;20057;-77
2023/01/23 10:36:00;;;;;;;8.20;6.83;;;3.00;99.90;;;;;;5035219;28;20101;-77
2023/01/23 10:38:28;;;;;;;11.10;7.00;;;3.10;99.90;;;;;;5043373;28;20056;-76
2023/01/23 10:41:12;;;;;;;10.00;7.93;;;3.10;99.90;;;;;;5045892;28;20059;-79
2023/01/23 10:43:42;;;;;;;9.87;7.23;;;3.10;99.90;;;;;;5057914;28;20901;-76
2023/01/23 10:46:12;;;;;;;9.53;7.60;;;3.20;99.90;;;;;;5038550;28;20052;-75
2023/01/23 10:48:46;;;;;;;10.00;7.83;;;3.20;99.90;;;;;;5030216;28;20061;-76
2023/01/23 10:51:31;;;;;;;10.33;7.97;;;3.20;99.90;;;;;;5037620;28;20049;-78
2023/01/23 10:54:11;;;;;;;11.73;8.07;;;3.30;99.90;;;;;;5039122;28;20071;-79
2023/01/23 10:57:19;;;;;;;11.82;8.95;;;3.30;99.90;;;;;;5038488;28;20063;-79
2023/01/23 10:59:59;;;;;;;11.00;9.20;;;3.30;99.90;;;;;;5033658;28;20610;-77
2023/01/23 11:02:30;;;;;;;12.83;9.17;;;3.30;99.90;;;;;;5037565;28;20229;-76
2023/01/23 11:04:56;;;;;;;11.52;8.82;;;3.50;99.90;;;;;;5037727;28;20425;-76
2023/01/23 11:07:35;;;;;;;11.43;8.93;;;3.30;99.90;;;;;;5031958;28;20072;-77
2023/01/23 11:10:19;;;;;;;13.53;9.13;;;3.40;99.90;;;;;;5017875;28;20071;-78
2023/01/23 11:12:53;;;;;;;14.60;9.57;;;3.40;99.90;;;;;;5038873;28;20052;-76
2023/01/23 11:15:21;;;;;;;11.87;9.07;;;3.50;99.90;;;;;;5038182;28;20068;-76
2023/01/23 11:17:48;;;;;;;11.20;9.13;;;3.60;99.90;;;;;;5045559;28;20052;-76
2023/01/23 11:20:36;;;;;;;12.67;9.73;;;3.40;99.90;;;;;;5048061;28;20048;-79
2023/01/23 11:23:05;;;;;;;11.83;8.83;;;3.40;99.90;;;;;;5049729;28;20049;-76
2023/01/23 11:25:49;;;;;;;14.90;9.53;;;3.40;99.90;;;;;;5042655;28;20227;-79
2023/01/23 11:28:29;;;;;;;13.47;10.20;;;3.40;99.90;;;;;;5042294;28;20058;-77
2023/01/23 11:31:15;;;;;;;13.30;10.10;;;3.40;99.90;;;;;;5037824;28;20067;-79
2023/01/23 11:34:03;;;;;;;15.07;10.87;;;3.40;99.90;;;;;;5043462;28;20399;-75
2023/01/23 11:37:04;;;;;;;16.10;10.43;;;3.50;99.90;;;;;;5028387;28;20145;-77
2023/01/23 11:39:52;;;;;;;12.27;10.27;;;3.50;99.90;;;;;;5004761;28;20052;-76
2023/01/23 11:42:18;;;;;;;15.17;11.47;;;3.60;99.90;;;;;;5036508;28;20789;-78
2023/01/23 11:44:45;;;;;;;15.67;10.83;;;3.60;99.90;;;;;;5040364;28;20060;-76
2023/01/23 11:47:26;;;;;;;15.17;11.07;;;3.70;99.90;;;;;;5032591;28;20172;-76
2023/01/23 11:50:08;;;;;;;14.63;11.00;;;3.60;99.90;;;;;;5043715;28;20203;-76
2023/01/23 11:52:36;;;;;;;14.10;10.40;;;3.60;99.90;;;;;;5033899;28;20377;-78
2023/01/23 11:55:11;;;;;;;14.23;11.07;;;3.70;99.90;;;;;;5048502;28;20056;-76
2023/01/23 11:57:58;;;;;;;18.17;12.03;;;3.70;99.90;;;;;;5036108;28;20052;-76
2023/01/23 12:00:43;;;;;;;16.23;11.60;;;3.70;99.90;;;;;;5049235;28;20087;-79
2023/01/23 12:03:33;;;;;;;20.03;11.80;;;3.70;99.90;;;;;;5061300;28;20286;-76
2023/01/23 12:06:05;;;;;;;15.00;11.10;;;3.70;99.90;;;;;;5035534;28;20246;-76
2023/01/23 12:08:36;;;;;;;14.13;11.73;;;3.70;99.90;;;;;;5035218;28;20136;-75
2023/01/23 12:11:12;;;;;;;13.88;10.73;;;3.70;99.90;;;;;;5037090;28;20098;-75
2023/01/23 12:14:10;;;;;;;15.27;12.00;;;3.70;99.90;;;;;;5039178;28;20048;-78
2023/01/23 12:17:00;;;;;;;15.17;11.10;;;3.70;99.90;;;;;;5038637;28;20095;-78
2023/01/23 12:19:55;;;;;;;9.37;7.47;;;3.60;99.90;;;;;;5039395;28;20076;-79
2023/01/23 12:22:52;;;;;;;14.93;10.63;;;3.70;99.90;;;;;;5040544;28;20048;-78
2023/01/23 12:25:26;;;;;;;18.17;11.17;;;3.70;99.90;;;;;;5031140;28;20061;-76
2023/01/23 12:28:27;;;;;;;12.20;10.20;;;3.70;99.90;;;;;;5040805;28;20052;-77
2023/01/23 12:31:01;;;;;;;11.10;9.10;;;3.70;99.90;;;;;;5043257;28;20049;-78
2023/01/23 12:33:42;;;;;;;11.90;9.60;;;3.70;99.90;;;;;;5046548;28;20072;-77
2023/01/23 12:36:30;;;;;;;10.75;8.40;;;3.70;99.90;;;;;;5046853;28;20093;-76
2023/01/23 12:39:19;;;;;;;9.77;8.63;;;3.70;99.90;;;;;;5047709;28;20059;-78
2023/01/23 12:41:51;;;;;;;12.07;9.80;;;3.70;99.90;;;;;;5047158;28;20076;-79
2023/01/23 12:44:42;;;;;;;12.70;9.40;;;3.70;99.90;;;;;;5043637;28;20472;-79
2023/01/23 12:47:15;;;;;;;13.50;10.23;;;3.70;99.90;;;;;;5044801;28;20040;-76
2023/01/23 12:49:48;;;;;;;11.33;9.30;;;3.70;99.90;;;;;;5048160;28;20177;-79
2023/01/23 12:52:31;;;;;;;10.23;8.33;;;3.70;99.90;;;;;;5040805;28;20067;-79
2023/01/23 12:55:12;;;;;;;15.13;8.93;;;3.80;99.90;;;;;;5042311;28;20452;-78
2023/01/23 12:57:38;;;;;;;9.77;8.50;;;3.80;99.90;;;;;;5040828;28;20114;-76
2023/01/23 13:00:29;;;;;;;13.83;8.87;;;3.60;99.90;;;;;;5043674;28;20047;-76
2023/01/23 13:03:08;;;;;;;11.60;9.10;;;3.60;99.90;;;;;;5046367;28;20402;-78
2023/01/23 13:05:59;;;;;;;8.67;6.23;;;3.60;99.90;;;;;;5046491;28;20060;-79
2023/01/23 13:08:40;;;;;;;9.27;7.10;;;3.60;99.90;;;;;;5044473;28;20860;-78